Auke Bay, Alaska
Current Conditions -  °F | °C
As of 9:36 AM on Wednesday 26 Nov 2014 (Local Time) from PAJN Reporting Station
Scattered Clouds Scattered Clouds  
Wind Chill: -1°   Ceiling: Unl
Heat Index:   Visibility: 10mi
Dew Point:   Wind: 5mph
Humidity: 96%   Direction: 250°WSW
Pressure: 30.2"   Gusts: NA
Location:  58.38°N, 134.67°W
Report Text: PAJN 261836Z 25004KT 10SM FEW008 SCT013 01/01 A3020 RMK AO2 T00110006
Loading
Personal Weather Stations






























Interactive Weather Map New forecast layout! Learn more

10-Day Weather Forecast

Advertisements
Track Severe Weather on mobile